createdAt,value
2023-03-06T00:01:36.509Z,94.8
2023-03-06T00:04:24.362Z,94.7
2023-03-06T00:07:12.163Z,95.1
2023-03-06T00:10:00.204Z,95.4
2023-03-06T00:12:47.910Z,95.2
2023-03-06T00:15:35.694Z,95.2
2023-03-06T00:18:23.506Z,95.3
2023-03-06T00:21:11.397Z,95.3
2023-03-06T00:23:58.963Z,95.4
2023-03-06T00:26:46.830Z,95.6
2023-03-06T00:29:34.465Z,95.6
2023-03-06T00:32:22.374Z,95.8
2023-03-06T00:35:10.147Z,95.7
2023-03-06T00:37:57.925Z,95.8
2023-03-06T00:40:45.555Z,95.9
2023-03-06T00:43:33.326Z,95.9
2023-03-06T00:46:21.207Z,95.8
2023-03-06T00:49:08.992Z,95.9
2023-03-06T00:51:56.745Z,96.2
2023-03-06T00:54:44.810Z,96.4
2023-03-06T00:57:32.705Z,96.1
2023-03-06T01:00:20.590Z,96.2
2023-03-06T01:03:08.364Z,96.2
2023-03-06T01:05:56.303Z,96
2023-03-06T01:08:44.053Z,96.1
2023-03-06T01:11:31.964Z,95.9
2023-03-06T01:14:19.695Z,96.2
2023-03-06T01:17:07.688Z,96.1
2023-03-06T01:19:55.519Z,96
2023-03-06T01:22:43.351Z,96.2
2023-03-06T01:25:31.261Z,96.3
2023-03-06T01:28:19.006Z,96.3
2023-03-06T01:31:06.655Z,96.4
2023-03-06T01:33:54.533Z,96.7
2023-03-06T01:36:42.338Z,96.6
2023-03-06T01:39:30.123Z,96.6
2023-03-06T01:42:17.880Z,96.5
2023-03-06T01:45:05.672Z,96.6
2023-03-06T01:47:53.481Z,96.8
2023-03-06T01:50:41.238Z,96.8
2023-03-06T01:53:28.971Z,96.9
2023-03-06T01:56:16.728Z,96.9
2023-03-06T01:59:04.539Z,96.9
2023-03-06T02:01:52.422Z,96.9
2023-03-06T02:04:40.085Z,97
2023-03-06T02:07:27.943Z,97
2023-03-06T02:10:15.688Z,96.9
2023-03-06T02:13:03.352Z,96.8
2023-03-06T02:15:51.212Z,96.9
2023-03-06T02:18:39.180Z,96.9
2023-03-06T02:21:26.960Z,97
2023-03-06T02:24:14.801Z,96.9
2023-03-06T02:27:02.625Z,97
2023-03-06T02:29:50.565Z,97
2023-03-06T02:32:38.800Z,96.9
2023-03-06T02:35:26.897Z,97.2
2023-03-06T02:38:14.797Z,97.2
2023-03-06T02:41:02.564Z,97.3
2023-03-06T02:43:50.202Z,97.3
2023-03-06T02:46:38.213Z,97.2
2023-03-06T02:49:26.772Z,97.2
2023-03-06T02:52:14.570Z,97
2023-03-06T02:55:02.295Z,96.9
2023-03-06T02:57:50.106Z,96.7
2023-03-06T03:00:38.442Z,96.6
2023-03-06T03:03:26.800Z,96.6
2023-03-06T03:06:14.626Z,96.6
2023-03-06T03:09:02.402Z,96.5
2023-03-06T03:11:50.144Z,96.5
2023-03-06T03:14:38.057Z,96.5
2023-03-06T03:17:25.735Z,96.6
2023-03-06T03:20:13.520Z,96.7
2023-03-06T03:23:01.240Z,96.9
2023-03-06T03:25:48.951Z,96.7
2023-03-06T03:28:36.631Z,96.7
2023-03-06T03:31:24.532Z,96.9
2023-03-06T03:34:12.340Z,97.2
2023-03-06T03:37:00.326Z,97.2
2023-03-06T03:39:48.242Z,97.5
2023-03-06T03:42:36.013Z,97.7
2023-03-06T03:45:23.834Z,97.7
2023-03-06T03:48:11.667Z,97.7
2023-03-06T03:50:59.423Z,97.7
2023-03-06T03:53:47.073Z,97.8
2023-03-06T03:56:35.062Z,98.1
2023-03-06T03:59:23.313Z,98
2023-03-06T04:02:11.304Z,98
2023-03-06T04:04:59.344Z,97.9
2023-03-06T04:07:47.164Z,97.8
2023-03-06T04:10:34.897Z,97.8
2023-03-06T04:13:22.818Z,97.7
2023-03-06T04:16:10.527Z,97.8
2023-03-06T04:18:58.398Z,97.8
2023-03-06T04:21:46.204Z,98
2023-03-06T04:24:33.876Z,97.8
2023-03-06T04:27:21.566Z,97.8
2023-03-06T04:30:09.560Z,97.9
2023-03-06T04:32:57.444Z,97.9
2023-03-06T04:35:45.487Z,97.9
2023-03-06T04:38:33.524Z,97.7
2023-03-06T04:41:21.689Z,97.6
2023-03-06T04:44:09.678Z,97.4
2023-03-06T04:46:57.469Z,97.5
2023-03-06T04:49:45.262Z,97.5
2023-03-06T04:52:33.211Z,97.5
2023-03-06T04:55:21.174Z,97.6
2023-03-06T04:58:09.002Z,97.6
2023-03-06T05:00:56.903Z,97.7
2023-03-06T05:03:44.872Z,97.8
2023-03-06T05:06:32.769Z,97.9
2023-03-06T05:09:20.561Z,98.1
2023-03-06T05:12:08.325Z,98.2
2023-03-06T05:14:56.059Z,98.5
2023-03-06T05:17:43.819Z,98.6
2023-03-06T05:20:31.766Z,98.5
2023-03-06T05:23:19.430Z,98.3
2023-03-06T05:26:07.359Z,98.5
2023-03-06T05:28:55.021Z,98.4
2023-03-06T05:31:42.976Z,98.3
2023-03-06T05:34:30.896Z,98.2
2023-03-06T05:37:19.121Z,98.1
2023-03-06T05:40:07.071Z,98
2023-03-06T05:42:57.083Z,98
2023-03-06T05:45:44.956Z,97.9
2023-03-06T05:48:32.685Z,98
2023-03-06T05:51:20.418Z,97.9
2023-03-06T05:54:08.297Z,98
2023-03-06T05:56:56.100Z,98.1
2023-03-06T05:59:46.568Z,98.3
2023-03-06T06:02:34.619Z,98.3
2023-03-06T06:05:22.606Z,98.4
2023-03-06T06:08:10.414Z,98.6
2023-03-06T06:10:58.448Z,98.6
2023-03-06T06:13:46.159Z,98.6
2023-03-06T06:16:34.047Z,98.6
2023-03-06T06:19:21.928Z,98.5
2023-03-06T06:22:09.760Z,98.5
2023-03-06T06:24:57.493Z,98.5
2023-03-06T06:27:45.454Z,98.4
2023-03-06T06:30:33.374Z,98.4
2023-03-06T06:33:21.252Z,98.5
2023-03-06T06:36:08.987Z,98.5
2023-03-06T06:38:56.772Z,98.6
2023-03-06T06:42:38.144Z,98.6
2023-03-06T06:45:27.043Z,98.7
2023-03-06T06:48:18.053Z,98.7
2023-03-06T06:51:08.058Z,98.7
2023-03-06T06:53:56.644Z,98.7
2023-03-06T06:56:44.446Z,98.7
2023-03-06T06:59:44.985Z,98.7
2023-03-06T07:02:33.052Z,98.6
2023-03-06T07:05:32.497Z,98.6
2023-03-06T07:08:20.311Z,98.6
2023-03-06T07:11:08.144Z,98.6
2023-03-06T07:13:56.037Z,98.6
2023-03-06T07:16:43.913Z,98.6
2023-03-06T07:19:31.857Z,98.6
2023-03-06T07:22:19.736Z,98.5
2023-03-06T07:25:07.524Z,98.4
2023-03-06T07:27:55.541Z,98.4
2023-03-06T07:30:43.412Z,98.4
2023-03-06T07:33:31.282Z,98.2
2023-03-06T07:36:19.359Z,98
2023-03-06T07:39:07.152Z,98
2023-03-06T07:41:55.090Z,98
2023-03-06T07:44:43.040Z,98
2023-03-06T07:47:30.915Z,98
2023-03-06T07:50:18.650Z,98
2023-03-06T07:53:06.562Z,98
2023-03-06T07:55:54.421Z,97.9
2023-03-06T07:58:42.308Z,97.6
2023-03-06T08:01:30.148Z,97.6
2023-03-06T08:04:18.176Z,97.6
2023-03-06T08:07:05.918Z,97.7
2023-03-06T08:09:53.994Z,97.5
2023-03-06T08:12:44.808Z,97.5
2023-03-06T08:15:32.555Z,97.4
2023-03-06T08:18:20.421Z,97
2023-03-06T08:21:08.433Z,96.7
2023-03-06T08:23:56.343Z,96.7
2023-03-06T08:26:44.458Z,96.7
2023-03-06T08:29:32.626Z,96.6
2023-03-06T08:32:20.866Z,96.5
2023-03-06T08:35:08.958Z,96.5
2023-03-06T08:37:56.896Z,96.5
2023-03-06T08:40:44.881Z,96.5
2023-03-06T08:43:33.244Z,96.3
2023-03-06T08:46:21.060Z,96.5
2023-03-06T08:49:09.130Z,96.8
2023-03-06T08:51:57.069Z,97.1
2023-03-06T08:54:45.080Z,97.6
2023-03-06T08:57:32.907Z,98
2023-03-06T09:00:23.605Z,98.4
2023-03-06T09:03:11.500Z,98.5
2023-03-06T09:05:59.281Z,98.6
2023-03-06T09:08:47.137Z,98.8
2023-03-06T09:11:34.919Z,99
2023-03-06T09:14:22.726Z,99.1
2023-03-06T09:17:11.046Z,99.3
2023-03-06T09:19:59.205Z,99.3
2023-03-06T09:22:47.209Z,99.2
2023-03-06T09:25:35.174Z,99.3
2023-03-06T09:28:38.756Z,99.1
2023-03-06T09:31:26.756Z,98.3
2023-03-06T09:34:14.902Z,98
2023-03-06T09:37:17.719Z,98
2023-03-06T09:40:05.807Z,97.9
2023-03-06T09:42:53.668Z,98
2023-03-06T09:45:41.776Z,97.9
2023-03-06T09:48:29.902Z,97.7
2023-03-06T09:51:20.659Z,97.5
2023-03-06T09:54:08.561Z,97
2023-03-06T09:56:56.604Z,96.5
2023-03-06T09:59:44.538Z,96.2
2023-03-06T10:02:32.997Z,96.4
2023-03-06T10:05:21.000Z,96.4
2023-03-06T10:08:08.991Z,96.2
2023-03-06T10:10:56.747Z,96.4
2023-03-06T10:13:44.562Z,96.6
2023-03-06T10:16:32.534Z,97
2023-03-06T10:19:20.466Z,96.8
2023-03-06T10:22:08.289Z,96.1
2023-03-06T10:24:56.220Z,95.9
2023-03-06T10:27:44.210Z,95.5
2023-03-06T10:30:32.924Z,95.4
2023-03-06T10:33:20.923Z,93.6
2023-03-06T10:36:09.200Z,92.6
2023-03-06T10:38:57.189Z,92.5
2023-03-06T10:41:46.543Z,92.2
2023-03-06T10:44:34.556Z,92.4
2023-03-06T10:47:22.432Z,91.6
2023-03-06T10:50:10.215Z,91.4
2023-03-06T10:52:58.101Z,91.1
2023-03-06T10:55:45.987Z,94.7
2023-03-06T10:58:33.866Z,93.7
2023-03-06T11:01:21.847Z,89.3
2023-03-06T11:04:09.820Z,85.7
2023-03-06T11:06:57.580Z,84.4
2023-03-06T11:09:45.236Z,78
2023-03-06T11:12:33.052Z,74.9
2023-03-06T11:15:21.080Z,72.7
2023-03-06T11:18:08.950Z,76
2023-03-06T11:21:00.230Z,75.9
2023-03-06T11:23:48.169Z,70.7
2023-03-06T11:26:36.013Z,72.4
2023-03-06T11:29:24.108Z,72.2
2023-03-06T11:32:12.458Z,72.2
2023-03-06T11:35:00.535Z,73.5
2023-03-06T11:37:48.361Z,74.7
2023-03-06T11:40:36.297Z,68.9
2023-03-06T11:43:24.038Z,67.4
2023-03-06T11:46:12.027Z,68.3
2023-03-06T11:49:00.296Z,70.5
2023-03-06T11:51:48.400Z,73.7
2023-03-06T11:54:36.037Z,74.3
2023-03-06T11:57:23.952Z,70.2
2023-03-06T12:00:11.723Z,65.8
2023-03-06T12:03:00.664Z,65.6
2023-03-06T12:05:48.986Z,67
2023-03-06T12:08:36.794Z,63.3
2023-03-06T12:11:24.807Z,61.1
2023-03-06T12:14:12.826Z,59.2
2023-03-06T12:17:00.863Z,60.9
2023-03-06T12:19:48.657Z,64.6
2023-03-06T12:22:36.404Z,64.1
2023-03-06T12:25:24.155Z,63.5
2023-03-06T12:28:11.836Z,64
2023-03-06T12:30:59.488Z,64.8
2023-03-06T12:33:47.172Z,65.5
2023-03-06T12:36:37.487Z,65.3
2023-03-06T12:39:25.299Z,62.4
2023-03-06T12:42:23.900Z,57.8
2023-03-06T12:45:11.746Z,57.3
2023-03-06T12:47:59.444Z,57.1
2023-03-06T12:50:47.258Z,57.9
2023-03-06T12:53:34.964Z,56.4
2023-03-06T12:56:22.722Z,58.7
2023-03-06T12:59:10.458Z,57.5
2023-03-06T13:01:58.194Z,57.3
2023-03-06T13:04:46.077Z,58.2
2023-03-06T13:07:33.856Z,58.6
2023-03-06T13:10:21.647Z,58.5
2023-03-06T13:13:09.336Z,58
2023-03-06T13:15:57.106Z,57.9
2023-03-06T13:18:44.800Z,57.9
2023-03-06T13:21:32.416Z,60.1
2023-03-06T13:24:20.206Z,62
2023-03-06T13:27:07.890Z,62.5
2023-03-06T13:29:55.742Z,60.1
2023-03-06T13:32:43.661Z,56.4
2023-03-06T13:35:31.454Z,52.6
2023-03-06T13:38:19.263Z,50.3
2023-03-06T13:41:07.031Z,50.1
2023-03-06T13:43:54.828Z,51.6
2023-03-06T13:46:42.782Z,55
2023-03-06T13:49:30.524Z,56.1
2023-03-06T13:52:18.258Z,58.6
2023-03-06T13:55:05.907Z,58.2
2023-03-06T13:57:53.490Z,58.2
2023-03-06T14:00:41.275Z,57.8
2023-03-06T14:03:29.524Z,58.2
2023-03-06T14:06:17.404Z,58.7
2023-03-06T14:09:05.245Z,58.6
2023-03-06T14:11:52.917Z,58
2023-03-06T14:14:40.804Z,57.6
2023-03-06T14:17:28.586Z,57.7
2023-03-06T14:20:16.603Z,58.3
2023-03-06T14:23:04.455Z,59.5
2023-03-06T14:25:52.088Z,60.7
2023-03-06T14:28:42.790Z,60.1
2023-03-06T14:31:30.601Z,60.1
2023-03-06T14:34:18.485Z,60.9
2023-03-06T14:37:06.185Z,61.6
2023-03-06T14:39:53.908Z,62.2
2023-03-06T14:42:41.579Z,63
2023-03-06T14:45:29.265Z,64.2
2023-03-06T14:48:17.026Z,65.1
2023-03-06T14:51:04.919Z,66
2023-03-06T14:53:52.692Z,66.6
2023-03-06T14:56:40.408Z,67
2023-03-06T14:59:28.207Z,67.8
2023-03-06T15:02:16.090Z,67.8
2023-03-06T15:05:03.820Z,68.2
2023-03-06T15:07:51.653Z,67.1
2023-03-06T15:10:39.611Z,66.7
2023-03-06T15:13:27.378Z,67.5
2023-03-06T15:16:15.189Z,67.1
2023-03-06T15:19:02.987Z,67.6
2023-03-06T15:21:50.753Z,67.5
2023-03-06T15:24:38.454Z,65.2
2023-03-06T15:27:26.463Z,64.1
2023-03-06T15:30:14.481Z,64.5
2023-03-06T15:33:02.468Z,65.4
2023-03-06T15:35:50.380Z,66.5
2023-03-06T15:38:40.722Z,67.6
2023-03-06T15:41:28.533Z,68.6
2023-03-06T15:44:16.402Z,68.9
2023-03-06T15:47:09.559Z,69.3
2023-03-06T15:49:57.230Z,69.5
2023-03-06T15:52:45.008Z,69.9
2023-03-06T15:55:32.796Z,70.5
2023-03-06T15:58:20.709Z,70.7
2023-03-06T16:01:08.650Z,70.9
2023-03-06T16:03:57.795Z,71.9
2023-03-06T16:06:45.672Z,72
2023-03-06T16:09:33.749Z,72.3
2023-03-06T16:12:21.448Z,74.7
2023-03-06T16:15:09.260Z,76.6
2023-03-06T16:17:57.216Z,75.6
2023-03-06T16:20:44.970Z,76.2
2023-03-06T16:23:32.851Z,76.4
2023-03-06T16:26:20.748Z,77.6
2023-03-06T16:29:08.529Z,78.7
2023-03-06T16:31:56.596Z,79.3
2023-03-06T16:34:44.671Z,80.3
2023-03-06T16:37:32.434Z,80
2023-03-06T16:40:20.017Z,80.2
2023-03-06T16:43:07.949Z,80.4
2023-03-06T16:45:55.795Z,80.3
2023-03-06T16:48:43.669Z,80.3
2023-03-06T16:51:31.487Z,80.4
2023-03-06T16:54:19.216Z,80.5
2023-03-06T16:57:06.868Z,80.6
2023-03-06T16:59:54.606Z,81.2
2023-03-06T17:02:42.454Z,81.3
2023-03-06T17:05:30.134Z,81.5
2023-03-06T17:08:17.941Z,81.7
2023-03-06T17:11:05.734Z,81.6
2023-03-06T17:13:53.410Z,81.6
2023-03-06T17:16:41.253Z,81.7
2023-03-06T17:19:29.322Z,81.9
2023-03-06T17:22:17.179Z,82.1
2023-03-06T17:25:04.992Z,82.4
2023-03-06T17:27:52.792Z,82.5
2023-03-06T17:30:40.550Z,82.7
2023-03-06T17:33:28.366Z,83
2023-03-06T17:36:16.414Z,82.8
2023-03-06T17:39:04.186Z,83
2023-03-06T17:41:52.160Z,83.2
2023-03-06T17:44:39.900Z,83.3
2023-03-06T17:47:27.555Z,83.6
2023-03-06T17:50:15.515Z,83.5
2023-03-06T17:53:03.194Z,83.7
2023-03-06T17:55:51.061Z,83.8
2023-03-06T17:58:40.826Z,84
2023-03-06T18:01:28.776Z,84
2023-03-06T18:04:16.633Z,84.1
2023-03-06T18:07:04.415Z,84
2023-03-06T18:09:52.150Z,83.9
2023-03-06T18:12:39.737Z,83.7
2023-03-06T18:15:27.585Z,83.5
2023-03-06T18:18:15.293Z,83.3
2023-03-06T18:21:02.971Z,83.3
2023-03-06T18:23:50.776Z,83.5
2023-03-06T18:26:38.434Z,83.5
2023-03-06T18:29:26.090Z,83.7
2023-03-06T18:32:14.013Z,83.8
2023-03-06T18:35:01.847Z,83.8
2023-03-06T18:37:49.619Z,84
2023-03-06T18:40:37.304Z,84.1
2023-03-06T18:43:24.980Z,83.9
2023-03-06T18:46:13.158Z,84
2023-03-06T18:49:01.029Z,84.4
2023-03-06T18:51:48.815Z,84.7
2023-03-06T18:54:36.418Z,84.7
2023-03-06T18:57:24.194Z,84.5
2023-03-06T19:00:11.984Z,84.4
2023-03-06T19:02:59.722Z,84.4
2023-03-06T19:05:47.550Z,84.1
2023-03-06T19:08:35.289Z,83.9
2023-03-06T19:11:22.944Z,83.7
2023-03-06T19:14:10.972Z,83.5
2023-03-06T19:16:58.834Z,83.1
2023-03-06T19:19:46.735Z,83
2023-03-06T19:22:34.636Z,83.1
2023-03-06T19:25:22.401Z,83
2023-03-06T19:28:10.182Z,82.9
2023-03-06T19:30:57.837Z,82.7
2023-03-06T19:33:45.514Z,82.7
2023-03-06T19:36:34.159Z,82.5
2023-03-06T19:39:21.958Z,82.4
2023-03-06T19:42:09.666Z,82.2
2023-03-06T19:44:57.179Z,82.2
2023-03-06T19:47:45.024Z,82.2
2023-03-06T19:50:32.559Z,82.1
2023-03-06T19:53:20.467Z,82.1
2023-03-06T19:56:08.615Z,82
2023-03-06T19:58:56.484Z,81.8
2023-03-06T20:01:44.707Z,81.8
2023-03-06T20:04:32.652Z,81.7
2023-03-06T20:07:20.329Z,81.7
2023-03-06T20:10:08.128Z,81.6
2023-03-06T20:12:55.948Z,81.7
2023-03-06T20:15:43.936Z,81.7
2023-03-06T20:18:31.614Z,81.6
2023-03-06T20:21:19.459Z,81.5
2023-03-06T20:24:07.324Z,81.5
2023-03-06T20:26:55.060Z,81.5
2023-03-06T20:29:42.833Z,81.3
2023-03-06T20:32:30.693Z,81.3
2023-03-06T20:35:18.458Z,81.3
2023-03-06T20:38:06.134Z,81.3
2023-03-06T20:40:53.733Z,81.2
2023-03-06T20:43:41.508Z,81.2
2023-03-06T20:46:29.611Z,81.3
2023-03-06T20:49:17.583Z,81.4
2023-03-06T20:52:05.307Z,81.5
2023-03-06T20:54:53.101Z,81.5
2023-03-06T20:57:40.930Z,81.6
2023-03-06T21:00:28.709Z,81.7
2023-03-06T21:03:16.552Z,81.7
2023-03-06T21:06:04.304Z,81.7
2023-03-06T21:08:52.064Z,81.7
2023-03-06T21:11:39.649Z,81.5
2023-03-06T21:14:27.299Z,81.6
2023-03-06T21:17:15.155Z,81.6
2023-03-06T21:20:02.954Z,81.6
2023-03-06T21:22:50.705Z,81.9
2023-03-06T21:25:38.481Z,82.4
2023-03-06T21:28:26.393Z,82.4
2023-03-06T21:31:14.387Z,82.8
2023-03-06T21:34:05.429Z,83.1
2023-03-06T21:36:53.378Z,83.9
2023-03-06T21:39:41.060Z,84.8
2023-03-06T21:42:28.842Z,86
2023-03-06T21:45:16.660Z,86.9
2023-03-06T21:48:04.571Z,87.7
2023-03-06T21:50:52.388Z,88.6
2023-03-06T21:53:40.209Z,89.5
2023-03-06T21:56:28.012Z,90.1
2023-03-06T21:59:15.902Z,90.4
2023-03-06T22:02:03.630Z,90.3
2023-03-06T22:04:51.442Z,91.8
2023-03-06T22:07:39.204Z,92.1
2023-03-06T22:10:27.104Z,92.2
2023-03-06T22:13:14.861Z,92.6
2023-03-06T22:16:02.574Z,92.4
2023-03-06T22:18:50.383Z,92.9
2023-03-06T22:21:38.009Z,93.4
2023-03-06T22:24:26.020Z,93.7
2023-03-06T22:27:13.814Z,94.2
2023-03-06T22:30:01.715Z,93.7
2023-03-06T22:32:49.683Z,94.3
2023-03-06T22:35:37.658Z,94.5
2023-03-06T22:38:25.341Z,95.1
2023-03-06T22:41:13.152Z,95.2
2023-03-06T22:44:00.969Z,95.2
2023-03-06T22:46:48.876Z,95.4
2023-03-06T22:49:36.601Z,95.7
2023-03-06T22:52:24.400Z,96
2023-03-06T22:55:12.063Z,96.6
2023-03-06T22:57:59.848Z,96.9
2023-03-06T23:00:48.018Z,96.9
2023-03-06T23:03:35.827Z,96.9
2023-03-06T23:06:23.407Z,97.2
2023-03-06T23:09:11.088Z,97.3
2023-03-06T23:11:58.688Z,97.6
2023-03-06T23:14:47.245Z,97.7
2023-03-06T23:17:35.106Z,97.9
2023-03-06T23:20:22.966Z,98.2
2023-03-06T23:23:10.528Z,98.8
2023-03-06T23:25:58.216Z,98.7
2023-03-06T23:28:46.038Z,98.8
2023-03-06T23:31:34.232Z,99
2023-03-06T23:34:22.390Z,99.5
2023-03-06T23:37:10.922Z,99.7
2023-03-06T23:39:58.759Z,99.7
2023-03-06T23:42:46.614Z,99.8
2023-03-06T23:45:34.470Z,99.9
2023-03-06T23:48:22.278Z,99.9
2023-03-06T23:51:10.172Z,99.9
2023-03-06T23:53:58.314Z,99.9
2023-03-06T23:56:46.122Z,99.9
2023-03-06T23:59:33.860Z,99.9
